Terminal Aerodrome Forecast
Issued by NWS Jacksonville, FL

Home | Current Version | Previous Version | Text Only | Print | Product List | Glossary On
Versions: 1 2 3 4 5 6 7 8 9 10 11 12 13 14 15 16 17 18 19
000
FTUS42 KJAX 020500
TAFJAX
TAF
KJAX 020540Z 0206/0306 26003KT P6SM FEW060 SCT200
     FM021600 25003KT P6SM SCT035 SCT250
     FM021800 11008KT P6SM VCTS SCT035CB BKN250
     FM022200 12008KT P6SM FEW040 SCT250=

USA.gov is the U.S. government's official web portal to all federal, state and local government web resources and services.